Time;durP1;ratioP1;P1;durP2;ratioP2;P2;SDS_P1;SDS_P2;PMS_P1;PMS_P2;Temp;Humidity;BMP_temperature;BMP_pressure;BME280_temperature;BME280_humidity;BME280_pressure;Samples;Min_cycle;Max_cycle;Signal;HPM_P1;HPM_P2
2020/12/31 00:02:05;;;;;;;7.43;3.33;;;5.90;92.40;;;;;;5016022;28;20032;-76
2020/12/31 00:04:31;;;;;;;10.63;3.08;;;5.90;92.40;;;;;;5017108;28;20033;-78
2020/12/31 00:06:56;;;;;;;13.00;3.97;;;5.80;92.40;;;;;;5036216;28;20029;-77
2020/12/31 00:09:23;;;;;;;7.40;3.15;;;5.80;92.40;;;;;;5032800;28;20024;-77
2020/12/31 00:11:49;;;;;;;6.88;3.15;;;5.80;92.40;;;;;;5015001;28;20314;-77
2020/12/31 00:14:15;;;;;;;6.32;2.92;;;5.80;92.40;;;;;;5017334;28;20137;-77
2020/12/31 00:16:40;;;;;;;5.78;2.63;;;5.80;92.70;;;;;;5017545;28;20362;-77
2020/12/31 00:19:06;;;;;;;6.18;2.70;;;5.80;92.40;;;;;;5035419;28;20021;-76
2020/12/31 00:21:32;;;;;;;9.13;3.10;;;5.80;92.40;;;;;;5016957;28;20021;-75
2020/12/31 00:23:58;;;;;;;9.80;3.08;;;5.80;92.60;;;;;;5017537;28;20108;-76
2020/12/31 00:26:24;;;;;;;5.93;2.63;;;5.80;92.40;;;;;;5017073;28;20120;-76
2020/12/31 00:28:50;;;;;;;7.75;3.28;;;5.80;92.40;;;;;;5035430;28;20096;-76
2020/12/31 00:31:15;;;;;;;5.63;2.60;;;5.80;92.40;;;;;;5034279;28;20059;-80
2020/12/31 00:33:41;;;;;;;5.30;2.42;;;5.80;92.40;;;;;;5017193;28;20021;-77
2020/12/31 00:36:07;;;;;;;7.35;2.72;;;5.80;92.40;;;;;;5034326;28;20021;-76
2020/12/31 00:38:32;;;;;;;6.20;2.22;;;5.80;92.30;;;;;;5016266;28;20155;-76
2020/12/31 00:40:59;;;;;;;5.38;2.40;;;5.90;92.30;;;;;;5016404;28;20379;-75
2020/12/31 00:43:25;;;;;;;7.15;2.95;;;5.80;92.30;;;;;;5034369;28;20522;-76
2020/12/31 00:45:51;;;;;;;12.30;2.53;;;5.90;92.30;;;;;;5034239;28;20039;-76
2020/12/31 00:48:17;;;;;;;9.38;2.63;;;5.90;92.20;;;;;;5016642;28;20072;-76
2020/12/31 00:50:42;;;;;;;7.38;2.33;;;5.90;92.20;;;;;;5034846;28;20025;-76
2020/12/31 00:53:08;;;;;;;6.30;2.78;;;5.90;92.20;;;;;;5035024;28;20028;-75
2020/12/31 00:55:34;;;;;;;6.53;2.78;;;5.90;92.20;;;;;;5034993;28;20132;-76
2020/12/31 00:58:00;;;;;;;4.80;2.00;;;5.90;92.20;;;;;;5035946;28;20034;-76
2020/12/31 01:00:26;;;;;;;4.60;1.83;;;5.90;92.20;;;;;;5034804;28;20029;-76
2020/12/31 01:02:51;;;;;;;4.47;2.35;;;5.90;92.20;;;;;;5017710;28;20056;-76
2020/12/31 01:05:17;;;;;;;5.05;1.95;;;6.00;92.20;;;;;;5034146;28;20029;-77
2020/12/31 01:07:43;;;;;;;5.47;2.08;;;6.00;92.20;;;;;;5017275;28;20052;-76
2020/12/31 01:10:09;;;;;;;6.03;1.75;;;6.00;92.20;;;;;;5016863;28;20014;-76
2020/12/31 01:12:35;;;;;;;4.35;1.98;;;6.00;92.10;;;;;;5034325;28;20044;-76
2020/12/31 01:15:03;;;;;;;4.63;2.00;;;5.90;92.10;;;;;;5016968;28;20518;-76
2020/12/31 01:17:28;;;;;;;5.57;2.33;;;5.90;92.10;;;;;;5016503;28;20025;-76
2020/12/31 01:19:54;;;;;;;3.75;1.98;;;5.90;92.10;;;;;;5016965;28;20072;-75
2020/12/31 01:22:20;;;;;;;4.47;2.20;;;5.90;92.10;;;;;;5034233;28;20499;-77
2020/12/31 01:24:46;;;;;;;4.63;2.20;;;5.80;92.10;;;;;;5034517;28;20032;-76
2020/12/31 01:27:13;;;;;;;5.40;2.20;;;5.90;92.10;;;;;;5016800;28;20340;-76
2020/12/31 01:29:39;;;;;;;3.05;2.35;;;5.80;92.10;;;;;;5016250;28;20217;-76
2020/12/31 01:32:04;;;;;;;4.93;1.80;;;5.80;92.10;;;;;;5016924;28;20075;-76
2020/12/31 01:34:30;;;;;;;5.63;3.03;;;5.80;92.10;;;;;;5016051;28;20484;-76
2020/12/31 01:36:56;;;;;;;4.63;2.28;;;5.80;92.10;;;;;;5034123;28;20025;-75
2020/12/31 01:39:23;;;;;;;5.25;2.13;;;5.80;92.10;;;;;;5033617;28;20105;-75
2020/12/31 01:41:49;;;;;;;7.20;2.65;;;5.80;92.10;;;;;;5015931;28;20046;-77
2020/12/31 01:44:15;;;;;;;4.43;2.03;;;5.80;92.40;;;;;;5016307;28;20425;-76
2020/12/31 01:46:46;;;;;;;5.47;2.22;;;5.80;92.10;;;;;;5033747;28;20017;-76
2020/12/31 01:49:16;;;;;;;6.25;2.20;;;5.80;92.10;;;;;;5016466;28;20104;-77
2020/12/31 01:51:44;;;;;;;6.38;2.85;;;5.80;92.10;;;;;;5015560;28;20455;-76
2020/12/31 01:54:11;;;;;;;4.85;2.30;;;5.80;92.10;;;;;;5033668;28;20072;-75
2020/12/31 01:56:37;;;;;;;5.22;1.85;;;5.80;92.20;;;;;;5033051;28;20021;-75
2020/12/31 01:59:03;;;;;;;3.83;2.25;;;5.70;92.10;;;;;;5033390;28;20068;-76
2020/12/31 02:01:29;;;;;;;6.20;2.50;;;5.70;92.10;;;;;;5015179;28;20017;-75
2020/12/31 02:03:57;;;;;;;4.35;2.00;;;5.80;92.20;;;;;;5033372;28;20029;-76
2020/12/31 02:06:24;;;;;;;7.85;2.42;;;5.70;92.20;;;;;;5015066;28;20474;-76
2020/12/31 02:08:51;;;;;;;3.10;1.80;;;5.70;92.10;;;;;;5033038;28;20045;-75
2020/12/31 02:11:18;;;;;;;5.47;2.45;;;5.70;92.20;;;;;;5033369;28;20091;-75
2020/12/31 02:13:45;;;;;;;6.45;2.28;;;5.70;92.10;;;;;;5032712;28;20021;-76
2020/12/31 02:16:19;;;;;;;7.93;2.85;;;5.80;92.10;;;;;;5033578;28;20025;-76
2020/12/31 02:18:57;;;;;;;10.45;4.10;;;5.80;92.10;;;;;;5015242;28;20367;-76
2020/12/31 02:21:31;;;;;;;8.52;3.65;;;5.80;92.10;;;;;;5032214;28;20071;-84
2020/12/31 02:23:58;;;;;;;7.32;2.78;;;5.70;92.10;;;;;;5015557;28;20059;-75
2020/12/31 02:26:27;;;;;;;10.52;2.95;;;5.70;92.10;;;;;;5032284;28;20026;-76
2020/12/31 02:28:53;;;;;;;5.60;2.45;;;5.60;92.10;;;;;;5015533;28;20013;-76
2020/12/31 02:31:20;;;;;;;10.13;2.92;;;5.60;92.20;;;;;;5033195;28;20048;-76
2020/12/31 02:33:50;;;;;;;9.80;3.25;;;5.60;92.20;;;;;;5014845;28;20439;-76
2020/12/31 02:36:17;;;;;;;8.38;2.47;;;5.60;92.20;;;;;;5032524;28;20083;-76
2020/12/31 02:38:44;;;;;;;9.05;4.28;;;5.60;92.30;;;;;;5032579;28;20861;-75
2020/12/31 02:41:10;;;;;;;9.32;3.35;;;5.50;92.30;;;;;;5032539;28;20088;-76
2020/12/31 02:43:36;;;;;;;5.93;2.38;;;5.50;92.30;;;;;;5032457;28;20036;-76
2020/12/31 02:46:06;;;;;;;6.80;2.83;;;5.50;92.40;;;;;;5015089;28;20025;-75
2020/12/31 02:48:33;;;;;;;6.13;2.30;;;5.50;92.40;;;;;;5032435;28;20068;-76
2020/12/31 02:50:59;;;;;;;8.13;2.85;;;5.50;92.40;;;;;;5033049;28;20112;-76
2020/12/31 02:53:25;;;;;;;6.15;2.63;;;5.50;92.40;;;;;;5014829;28;20112;-85
2020/12/31 02:55:50;;;;;;;6.60;3.28;;;5.50;92.40;;;;;;5032625;28;20021;-76
2020/12/31 02:58:16;;;;;;;5.70;2.30;;;5.50;92.40;;;;;;5032261;28;20052;-76
2020/12/31 03:00:43;;;;;;;6.30;2.25;;;5.50;92.50;;;;;;5014393;28;20117;-76
2020/12/31 03:03:09;;;;;;;5.32;2.63;;;5.50;92.50;;;;;;5014947;28;20021;-76
2020/12/31 03:05:35;;;;;;;8.40;3.10;;;5.50;92.50;;;;;;5010437;28;20033;-76
2020/12/31 03:08:00;;;;;;;5.70;2.35;;;5.50;92.50;;;;;;5010674;28;20424;-76
2020/12/31 03:10:26;;;;;;;6.30;2.80;;;5.50;92.60;;;;;;5011823;28;20022;-84
2020/12/31 03:12:52;;;;;;;7.35;3.08;;;5.50;92.70;;;;;;5011536;28;20053;-76
2020/12/31 03:15:20;;;;;;;5.72;2.30;;;5.50;92.70;;;;;;4994987;28;20455;-77
2020/12/31 03:17:46;;;;;;;6.47;2.55;;;5.50;92.70;;;;;;5010938;28;20155;-75
2020/12/31 03:20:12;;;;;;;7.88;2.83;;;5.50;92.70;;;;;;5012520;28;20106;-76
2020/12/31 03:22:37;;;;;;;5.55;2.63;;;5.50;92.80;;;;;;4993565;28;20438;-76
2020/12/31 03:25:04;;;;;;;5.00;2.28;;;5.50;92.70;;;;;;5011765;28;20033;-76
2020/12/31 03:27:30;;;;;;;8.20;2.63;;;5.50;92.70;;;;;;4993401;28;20022;-76
2020/12/31 03:29:55;;;;;;;5.03;2.28;;;5.50;92.60;;;;;;5011581;28;20093;-76
2020/12/31 03:32:21;;;;;;;6.53;2.75;;;5.50;92.60;;;;;;5012563;28;20046;-77
2020/12/31 03:34:47;;;;;;;7.18;2.90;;;5.50;92.60;;;;;;5015599;28;20358;-77
2020/12/31 03:37:13;;;;;;;7.85;2.85;;;5.50;92.60;;;;;;5016058;28;20029;-76
2020/12/31 03:39:39;;;;;;;5.65;2.22;;;5.50;92.60;;;;;;5013863;28;20022;-76
2020/12/31 03:42:04;;;;;;;5.72;2.53;;;5.50;92.60;;;;;;5014361;28;20158;-76
2020/12/31 03:44:30;;;;;;;4.38;2.20;;;5.50;92.60;;;;;;5015065;28;20102;-76
2020/12/31 03:46:56;;;;;;;6.88;2.75;;;5.50;92.60;;;;;;5015760;28;20018;-76
2020/12/31 03:49:22;;;;;;;6.60;2.97;;;5.50;92.60;;;;;;5015671;28;20531;-75
2020/12/31 03:51:48;;;;;;;5.75;2.00;;;5.50;92.60;;;;;;4997995;28;20026;-76
2020/12/31 03:54:13;;;;;;;5.70;2.42;;;5.50;92.60;;;;;;5015770;28;20021;-76
2020/12/31 03:56:39;;;;;;;5.95;2.60;;;5.50;92.70;;;;;;4998074;28;20094;-76
2020/12/31 03:59:04;;;;;;;6.13;2.33;;;5.50;92.70;;;;;;5016313;28;20033;-76
2020/12/31 04:01:31;;;;;;;4.82;2.08;;;5.60;92.70;;;;;;5015653;28;20101;-77
2020/12/31 04:03:59;;;;;;;3.70;1.70;;;5.60;92.70;;;;;;4998360;28;20503;-76
2020/12/31 04:06:25;;;;;;;4.28;1.92;;;5.60;92.70;;;;;;5015868;28;20061;-76
2020/12/31 04:08:51;;;;;;;5.28;2.30;;;5.60;92.70;;;;;;5015290;28;20038;-76
2020/12/31 04:11:17;;;;;;;5.15;2.20;;;5.70;92.70;;;;;;5015808;28;20105;-76
2020/12/31 04:13:43;;;;;;;5.10;1.77;;;5.60;92.60;;;;;;5015390;28;20053;-76
2020/12/31 04:16:08;;;;;;;6.55;2.20;;;5.60;92.60;;;;;;5015625;28;20109;-76
2020/12/31 04:18:34;;;;;;;2.75;1.95;;;5.60;92.60;;;;;;4997498;28;20021;-76
2020/12/31 04:21:00;;;;;;;5.70;1.80;;;5.60;92.90;;;;;;5015537;28;20034;-76
2020/12/31 04:23:25;;;;;;;5.45;2.45;;;5.60;92.60;;;;;;5015358;28;20021;-76
2020/12/31 04:25:51;;;;;;;7.28;2.83;;;5.70;92.60;;;;;;4997404;28;20383;-77
2020/12/31 04:28:17;;;;;;;5.32;2.53;;;5.60;92.60;;;;;;5015479;28;20101;-77
2020/12/31 04:30:50;;;;;;;4.30;1.90;;;5.60;92.60;;;;;;5015025;28;20044;-77
2020/12/31 04:33:17;;;;;;;4.88;2.03;;;5.60;92.60;;;;;;4997659;28;20017;-74
2020/12/31 04:35:43;;;;;;;4.15;2.10;;;5.60;92.60;;;;;;5014891;28;20473;-75
2020/12/31 04:38:09;;;;;;;3.80;1.85;;;5.60;92.60;;;;;;4997847;28;20021;-75
2020/12/31 04:40:35;;;;;;;4.53;1.83;;;5.60;92.60;;;;;;5014961;28;20092;-75
2020/12/31 04:43:01;;;;;;;4.57;2.25;;;5.60;92.60;;;;;;5014796;28;20022;-74
2020/12/31 04:45:29;;;;;;;3.95;1.80;;;5.60;92.60;;;;;;4997764;28;20542;-75
2020/12/31 04:48:06;;;;;;;4.13;1.92;;;5.60;92.60;;;;;;5014765;28;20411;-75
2020/12/31 04:50:37;;;;;;;5.03;2.10;;;5.60;92.60;;;;;;5013455;28;20025;-83
2020/12/31 04:53:10;;;;;;;5.85;2.03;;;5.60;92.60;;;;;;4997579;28;20019;-75
2020/12/31 04:55:44;;;;;;;5.70;2.30;;;5.60;92.60;;;;;;4997174;28;20362;-75
2020/12/31 04:58:14;;;;;;;4.82;2.15;;;5.70;92.60;;;;;;5014894;28;20489;-75
2020/12/31 05:00:41;;;;;;;6.03;2.40;;;5.60;92.60;;;;;;5014902;28;20026;-75
2020/12/31 05:03:08;;;;;;;3.88;2.30;;;5.60;92.60;;;;;;4997324;28;20108;-75
2020/12/31 05:05:35;;;;;;;5.43;2.30;;;5.70;92.60;;;;;;5014457;28;20526;-83
2020/12/31 05:08:01;;;;;;;4.53;2.00;;;5.60;92.60;;;;;;5015029;28;20018;-75
2020/12/31 05:10:28;;;;;;;5.25;1.70;;;5.70;92.60;;;;;;5014836;28;20018;-74
2020/12/31 05:13:11;;;;;;;4.22;2.30;;;5.60;92.60;;;;;;5014373;28;20213;-75
2020/12/31 05:15:42;;;;;;;4.68;2.20;;;5.70;92.60;;;;;;5012974;28;20037;-76
2020/12/31 05:18:23;;;;;;;5.95;2.28;;;5.70;92.60;;;;;;5014696;28;20034;-75
2020/12/31 05:21:00;;;;;;;4.78;2.03;;;5.60;92.60;;;;;;5013000;28;20112;-75
2020/12/31 05:23:27;;;;;;;4.70;1.98;;;5.60;92.80;;;;;;4996541;28;20105;-75
2020/12/31 05:25:54;;;;;;;7.95;2.85;;;5.60;92.60;;;;;;4996149;28;20022;-75
2020/12/31 05:28:30;;;;;;;3.95;1.83;;;5.70;92.60;;;;;;5014879;28;20024;-76
2020/12/31 05:31:07;;;;;;;2.83;1.88;;;5.60;92.60;;;;;;4996296;28;20022;-75
2020/12/31 05:33:38;;;;;;;4.28;2.20;;;5.70;92.60;;;;;;5014429;28;20026;-75
2020/12/31 05:36:23;;;;;;;4.97;2.15;;;5.60;92.60;;;;;;5013164;28;20076;-76
2020/12/31 05:38:56;;;;;;;5.85;1.95;;;5.60;92.50;;;;;;5012736;28;20443;-76
2020/12/31 05:41:23;;;;;;;3.47;1.70;;;5.60;92.60;;;;;;5009705;28;20042;-75
2020/12/31 05:44:13;;;;;;;5.05;1.85;;;5.50;92.60;;;;;;4992958;28;20468;-76
2020/12/31 05:46:39;;;;;;;4.65;1.90;;;5.60;92.60;;;;;;4991759;28;20479;-77
2020/12/31 05:49:10;;;;;;;2.60;1.60;;;5.60;92.60;;;;;;4993428;28;20101;-76
2020/12/31 05:51:38;;;;;;;4.97;1.80;;;5.60;92.60;;;;;;4994251;28;20022;-75
2020/12/31 05:54:15;;;;;;;5.72;1.95;;;5.60;92.60;;;;;;4994062;28;20023;-75
2020/12/31 05:56:43;;;;;;;3.13;1.65;;;5.60;92.60;;;;;;4993222;28;20023;-76
2020/12/31 05:59:22;;;;;;;3.83;1.75;;;5.60;92.60;;;;;;4994172;28;20018;-75
2020/12/31 06:01:58;;;;;;;6.50;2.10;;;5.60;92.60;;;;;;4992555;28;20014;-75
2020/12/31 06:04:30;;;;;;;3.75;1.35;;;5.60;92.60;;;;;;4993887;28;20086;-75
2020/12/31 06:07:01;;;;;;;3.88;1.77;;;5.60;92.60;;;;;;4993295;28;20030;-75
2020/12/31 06:09:31;;;;;;;3.90;1.52;;;5.60;92.60;;;;;;4993146;28;20037;-75
2020/12/31 06:12:10;;;;;;;3.35;1.33;;;5.60;92.60;;;;;;4993630;28;20049;-75
2020/12/31 06:14:39;;;;;;;1.73;1.20;;;5.60;92.50;;;;;;4992869;28;20026;-75
2020/12/31 06:17:19;;;;;;;4.55;1.42;;;5.60;92.60;;;;;;4992616;28;20014;-75
2020/12/31 06:19:57;;;;;;;4.05;1.73;;;5.60;92.60;;;;;;4993190;28;20530;-75
2020/12/31 06:22:34;;;;;;;3.35;1.52;;;5.60;92.60;;;;;;4994356;28;20041;-75
2020/12/31 06:25:04;;;;;;;3.25;1.42;;;5.60;92.60;;;;;;4992178;28;20305;-75
2020/12/31 06:27:40;;;;;;;5.30;1.73;;;5.60;92.60;;;;;;4993791;28;20029;-75
2020/12/31 06:30:06;;;;;;;3.72;1.95;;;5.50;92.60;;;;;;4993567;28;20444;-75
2020/12/31 06:32:36;;;;;;;6.25;2.22;;;5.50;92.60;;;;;;4993581;28;20037;-75
2020/12/31 06:35:10;;;;;;;6.32;1.95;;;5.50;92.60;;;;;;4991813;28;20056;-75
2020/12/31 06:37:36;;;;;;;4.20;2.15;;;5.50;92.60;;;;;;5008773;28;20018;-74
2020/12/31 06:40:21;;;;;;;8.15;2.15;;;5.50;92.60;;;;;;4996029;28;20403;-74
2020/12/31 06:43:03;;;;;;;3.88;1.58;;;5.50;92.60;;;;;;5012736;28;20014;-74
2020/12/31 06:45:33;;;;;;;4.38;1.88;;;5.50;92.60;;;;;;4995412;28;20026;-74
2020/12/31 06:47:59;;;;;;;8.18;2.45;;;5.50;92.60;;;;;;5012174;28;20417;-75
2020/12/31 06:50:53;;;;;;;4.88;1.85;;;5.40;92.60;;;;;;5011537;28;20018;-75
2020/12/31 06:53:37;;;;;;;4.70;1.40;;;5.50;92.60;;;;;;5011533;28;20370;-75
2020/12/31 06:56:12;;;;;;;2.90;1.35;;;5.50;92.60;;;;;;4994709;28;20051;-75
2020/12/31 06:58:39;;;;;;;2.15;1.48;;;5.50;92.60;;;;;;4995258;28;20022;-75
2020/12/31 07:01:24;;;;;;;3.00;1.35;;;5.50;92.60;;;;;;5012385;28;20101;-75
2020/12/31 07:03:51;;;;;;;6.70;1.92;;;5.50;92.60;;;;;;5012312;28;20022;-75
2020/12/31 07:06:27;;;;;;;2.63;1.45;;;5.40;92.60;;;;;;5011393;28;20053;-76
2020/12/31 07:08:55;;;;;;;4.18;1.40;;;5.50;92.60;;;;;;5012323;28;20014;-76
2020/12/31 07:11:39;;;;;;;3.95;1.45;;;5.50;92.60;;;;;;4994855;28;20026;-75
2020/12/31 07:14:25;;;;;;;2.42;1.58;;;5.50;92.60;;;;;;5012273;28;20018;-75
2020/12/31 07:16:54;;;;;;;3.72;1.63;;;5.50;92.60;;;;;;5012459;28;20028;-76
2020/12/31 07:19:34;;;;;;;2.05;1.20;;;5.50;92.60;;;;;;5011284;28;20026;-76
2020/12/31 07:22:01;;;;;;;3.97;1.70;;;5.50;92.60;;;;;;5010654;28;20021;-76
2020/12/31 07:24:28;;;;;;;3.17;1.60;;;5.50;92.60;;;;;;5012511;28;20018;-76
2020/12/31 07:26:59;;;;;;;2.78;1.77;;;5.50;92.60;;;;;;4994698;28;20022;-76
2020/12/31 07:29:34;;;;;;;4.20;1.88;;;5.50;92.60;;;;;;4995058;28;20104;-76
2020/12/31 07:32:02;;;;;;;4.88;2.05;;;5.50;92.60;;;;;;5012182;28;20080;-76
2020/12/31 07:34:30;;;;;;;5.28;2.00;;;5.50;92.60;;;;;;4994884;28;20061;-76
2020/12/31 07:37:01;;;;;;;3.85;2.08;;;5.60;92.60;;;;;;5012072;28;20056;-76
2020/12/31 07:39:27;;;;;;;3.08;1.58;;;5.60;92.60;;;;;;5012941;28;20040;-76
2020/12/31 07:42:16;;;;;;;4.70;1.98;;;5.60;92.60;;;;;;5011852;28;20046;-75
2020/12/31 07:44:52;;;;;;;3.38;1.50;;;5.60;92.50;;;;;;4994962;28;20088;-76
2020/12/31 07:47:19;;;;;;;3.88;1.60;;;5.60;92.50;;;;;;4994897;28;20332;-74
2020/12/31 07:49:46;;;;;;;3.33;1.30;;;5.50;92.50;;;;;;5012384;28;20097;-75
2020/12/31 07:52:12;;;;;;;2.20;1.52;;;5.50;92.50;;;;;;5012405;28;20444;-76
2020/12/31 07:54:38;;;;;;;2.30;1.20;;;5.60;92.50;;;;;;4994712;28;20029;-75
2020/12/31 07:57:10;;;;;;;3.63;1.08;;;5.50;92.50;;;;;;5012042;28;20447;-75
2020/12/31 07:59:44;;;;;;;3.08;1.23;;;5.60;92.50;;;;;;5011161;28;20022;-75
2020/12/31 08:02:10;;;;;;;3.42;1.30;;;5.60;92.80;;;;;;4994151;28;20354;-75
2020/12/31 08:04:36;;;;;;;1.77;1.02;;;5.50;92.50;;;;;;5012275;28;20083;-75
2020/12/31 08:07:03;;;;;;;2.10;1.02;;;5.50;92.50;;;;;;5011674;28;20108;-75
2020/12/31 08:09:29;;;;;;;2.63;1.90;;;5.60;92.50;;;;;;5012232;28;20029;-75
2020/12/31 08:11:54;;;;;;;2.35;1.30;;;5.50;92.50;;;;;;5011389;28;20025;-76
2020/12/31 08:14:20;;;;;;;2.08;1.15;;;5.60;92.50;;;;;;5027418;28;20443;-74
2020/12/31 08:17:01;;;;;;;1.30;1.02;;;5.60;92.50;;;;;;5012287;28;20455;-75
2020/12/31 08:19:30;;;;;;;2.80;1.35;;;5.60;92.50;;;;;;5014653;28;20176;-76
2020/12/31 08:22:03;;;;;;;1.83;1.00;;;5.60;92.50;;;;;;5015066;28;20030;-75
2020/12/31 08:24:34;;;;;;;2.80;1.02;;;5.60;92.50;;;;;;4997827;28;20056;-76
2020/12/31 08:27:00;;;;;;;1.38;1.02;;;5.60;92.40;;;;;;4997164;28;20018;-75
2020/12/31 08:29:28;;;;;;;2.47;1.27;;;5.60;92.50;;;;;;4997864;28;20437;-74
2020/12/31 08:31:54;;;;;;;1.55;1.30;;;5.60;92.40;;;;;;5014891;28;20026;-75
2020/12/31 08:34:37;;;;;;;2.08;0.90;;;5.60;92.40;;;;;;5015253;28;20014;-76
2020/12/31 08:37:04;;;;;;;1.52;1.00;;;5.60;92.30;;;;;;5014940;28;20025;-76
2020/12/31 08:39:30;;;;;;;1.88;1.10;;;5.60;92.30;;;;;;5015352;28;20018;-75
2020/12/31 08:42:00;;;;;;;2.65;1.20;;;5.60;92.30;;;;;;5014381;28;20050;-75
2020/12/31 08:44:27;;;;;;;2.30;1.40;;;5.60;92.30;;;;;;5013843;28;20022;-75
2020/12/31 08:46:53;;;;;;;2.22;1.00;;;5.50;92.30;;;;;;4998938;28;20104;-76
2020/12/31 08:49:26;;;;;;;2.78;1.55;;;5.60;92.30;;;;;;5024544;28;20033;-76
2020/12/31 08:51:53;;;;;;;3.17;1.27;;;5.60;92.30;;;;;;5010507;28;20152;-80
2020/12/31 08:54:19;;;;;;;2.03;1.10;;;5.60;92.30;;;;;;5032477;28;20018;-77
2020/12/31 08:56:45;;;;;;;1.88;1.10;;;5.60;92.30;;;;;;5030160;28;20450;-78
2020/12/31 08:59:16;;;;;;;4.38;1.15;;;5.60;92.30;;;;;;5011643;28;20033;-75
2020/12/31 09:01:43;;;;;;;3.83;1.40;;;5.60;92.30;;;;;;5029359;28;20014;-75
2020/12/31 09:04:14;;;;;;;2.13;1.20;;;5.60;92.30;;;;;;5013482;28;20022;-75
2020/12/31 09:06:42;;;;;;;2.05;1.15;;;5.60;92.30;;;;;;5013957;28;20102;-76
2020/12/31 09:09:19;;;;;;;1.48;1.20;;;5.60;92.30;;;;;;5019293;28;20017;-76
2020/12/31 09:11:57;;;;;;;3.60;1.40;;;5.70;92.30;;;;;;5026686;28;20022;-76
2020/12/31 09:14:23;;;;;;;4.05;1.42;;;5.70;92.30;;;;;;5009887;28;20044;-75
2020/12/31 09:16:49;;;;;;;3.03;1.20;;;5.70;92.30;;;;;;5028385;28;20104;-76
2020/12/31 09:19:16;;;;;;;2.28;1.30;;;5.70;92.30;;;;;;5028564;28;20075;-74
2020/12/31 09:21:42;;;;;;;1.80;1.23;;;5.70;92.50;;;;;;5014587;28;20024;-76
2020/12/31 09:24:21;;;;;;;1.90;0.90;;;5.70;92.30;;;;;;5030871;28;20025;-76
2020/12/31 09:26:57;;;;;;;3.75;1.40;;;5.70;92.20;;;;;;5013531;28;20029;-75
2020/12/31 09:29:24;;;;;;;2.25;1.33;;;5.80;92.20;;;;;;5031213;28;20018;-76
2020/12/31 09:31:51;;;;;;;3.15;1.55;;;5.70;92.20;;;;;;5032283;28;20100;-75
2020/12/31 09:34:16;;;;;;;3.63;1.73;;;5.70;92.10;;;;;;5027003;28;20014;-75
2020/12/31 09:36:42;;;;;;;3.13;1.42;;;5.80;92.10;;;;;;5031153;28;20021;-75
2020/12/31 09:39:08;;;;;;;2.17;1.27;;;5.80;92.10;;;;;;5012099;28;20135;-75
2020/12/31 09:41:34;;;;;;;2.78;1.50;;;5.80;92.10;;;;;;5013993;28;20033;-76
2020/12/31 09:44:00;;;;;;;6.05;1.45;;;5.80;92.10;;;;;;5031795;28;20040;-75
2020/12/31 09:46:26;;;;;;;2.08;1.30;;;5.80;92.10;;;;;;5014486;28;20025;-75
2020/12/31 09:48:53;;;;;;;1.38;1.10;;;5.80;92.10;;;;;;5033086;28;20028;-76
2020/12/31 09:51:19;;;;;;;1.83;1.20;;;5.80;92.10;;;;;;5016584;28;20144;-75
2020/12/31 09:53:45;;;;;;;3.30;1.33;;;5.80;92.10;;;;;;5016909;28;20018;-75
2020/12/31 09:56:11;;;;;;;3.63;1.30;;;5.80;92.10;;;;;;5033029;28;20031;-76
2020/12/31 09:58:40;;;;;;;1.83;1.42;;;5.80;92.10;;;;;;5015778;28;20108;-76
2020/12/31 10:01:05;;;;;;;2.33;1.30;;;5.80;92.10;;;;;;5015360;28;20018;-76
2020/12/31 10:03:31;;;;;;;2.85;1.60;;;5.80;92.00;;;;;;5032998;28;20347;-76
2020/12/31 10:05:57;;;;;;;4.18;1.67;;;5.80;92.00;;;;;;5015625;28;20366;-77
2020/12/31 10:08:22;;;;;;;3.25;1.38;;;5.80;92.00;;;;;;5033730;28;20410;-75
2020/12/31 10:10:48;;;;;;;3.95;2.13;;;5.80;92.00;;;;;;5015648;28;20021;-75
2020/12/31 10:13:14;;;;;;;3.72;1.60;;;5.80;92.00;;;;;;5029835;28;20022;-75
2020/12/31 10:15:39;;;;;;;3.15;1.35;;;5.90;92.00;;;;;;5013127;28;20398;-74
2020/12/31 10:18:05;;;;;;;2.08;1.40;;;5.80;91.90;;;;;;5030496;28;20022;-74
2020/12/31 10:20:32;;;;;;;3.80;1.58;;;5.90;92.00;;;;;;5012958;28;20362;-75
2020/12/31 10:22:58;;;;;;;5.05;1.88;;;5.90;92.00;;;;;;5030789;28;20022;-75
2020/12/31 10:25:24;;;;;;;4.22;1.63;;;5.90;92.00;;;;;;5030120;28;20033;-76
2020/12/31 10:27:50;;;;;;;4.15;1.65;;;5.90;91.90;;;;;;5030784;28;20021;-75
2020/12/31 10:30:16;;;;;;;5.63;1.73;;;5.90;91.90;;;;;;5029833;28;20671;-74
2020/12/31 10:32:41;;;;;;;3.60;2.05;;;5.90;91.90;;;;;;5030728;28;20021;-74
2020/12/31 10:35:07;;;;;;;2.45;1.45;;;6.00;91.90;;;;;;5029922;28;20104;-75
2020/12/31 10:37:33;;;;;;;4.45;2.10;;;6.00;91.90;;;;;;5012718;28;20446;-73
2020/12/31 10:39:59;;;;;;;4.25;1.70;;;6.00;91.90;;;;;;5012116;28;20108;-74
2020/12/31 10:42:25;;;;;;;5.53;1.70;;;6.00;92.00;;;;;;5029488;28;20073;-74
2020/12/31 10:44:51;;;;;;;3.25;1.90;;;6.00;92.00;;;;;;5012543;28;20126;-73
2020/12/31 10:47:17;;;;;;;2.75;1.70;;;6.00;92.00;;;;;;5011928;28;20029;-73
2020/12/31 10:49:42;;;;;;;2.95;1.42;;;6.00;91.90;;;;;;5030594;28;20391;-74
2020/12/31 10:52:08;;;;;;;3.13;1.70;;;6.10;91.90;;;;;;5029207;28;20101;-73
2020/12/31 10:54:33;;;;;;;3.47;1.58;;;6.10;91.80;;;;;;5011926;28;20351;-75
2020/12/31 10:56:59;;;;;;;3.47;2.10;;;6.10;91.80;;;;;;5030071;28;20096;-74
2020/12/31 10:59:25;;;;;;;5.47;2.35;;;6.20;91.80;;;;;;5029387;28;20025;-75
2020/12/31 11:01:52;;;;;;;4.93;2.25;;;6.20;91.70;;;;;;5030261;28;20096;-77
2020/12/31 11:04:18;;;;;;;4.47;1.95;;;6.20;91.70;;;;;;5011363;28;20153;-73
2020/12/31 11:06:44;;;;;;;3.42;1.67;;;6.20;91.60;;;;;;5012087;28;20034;-73
2020/12/31 11:09:10;;;;;;;4.65;2.05;;;6.30;91.60;;;;;;5029461;28;20043;-73
2020/12/31 11:11:38;;;;;;;3.63;1.67;;;6.20;91.60;;;;;;5029926;28;20021;-72
2020/12/31 11:14:04;;;;;;;3.15;1.63;;;6.30;91.60;;;;;;5028907;28;20425;-73
2020/12/31 11:16:29;;;;;;;4.97;2.42;;;6.30;91.70;;;;;;5029978;28;20025;-73
2020/12/31 11:18:55;;;;;;;5.07;2.50;;;6.30;91.70;;;;;;5029187;28;20063;-74
2020/12/31 11:21:21;;;;;;;5.53;2.30;;;6.30;91.70;;;;;;5029405;28;20021;-73
2020/12/31 11:23:47;;;;;;;5.47;2.13;;;6.30;91.70;;;;;;5029713;28;20025;-73
2020/12/31 11:26:20;;;;;;;5.38;1.60;;;6.40;91.70;;;;;;5028870;28;20490;-74
2020/12/31 11:28:46;;;;;;;5.20;1.95;;;6.40;91.80;;;;;;5011793;28;20020;-73
2020/12/31 11:31:13;;;;;;;2.85;1.60;;;6.40;91.80;;;;;;5028674;28;20117;-74
2020/12/31 11:33:43;;;;;;;6.13;1.95;;;6.40;91.80;;;;;;5012010;28;20073;-73
2020/12/31 11:36:09;;;;;;;2.63;1.50;;;6.50;91.80;;;;;;5029121;28;20026;-73
2020/12/31 11:38:35;;;;;;;4.47;1.80;;;6.50;91.70;;;;;;5011949;28;20010;-73
2020/12/31 11:41:03;;;;;;;4.82;1.85;;;6.50;91.60;;;;;;5011471;28;20107;-73
2020/12/31 11:43:29;;;;;;;5.10;2.00;;;6.60;91.60;;;;;;5027173;28;20029;-76
2020/12/31 11:45:55;;;;;;;3.95;2.03;;;6.60;91.50;;;;;;5028484;28;20025;-73
2020/12/31 11:48:20;;;;;;;3.63;1.70;;;6.70;91.50;;;;;;5004294;28;20117;-72
2020/12/31 11:50:48;;;;;;;3.15;1.58;;;6.70;91.40;;;;;;5009914;28;20640;-73
2020/12/31 11:53:14;;;;;;;3.45;1.42;;;6.70;91.30;;;;;;5023661;28;20021;-72
2020/12/31 11:55:40;;;;;;;2.75;1.52;;;6.70;91.30;;;;;;5033367;28;20457;-73
2020/12/31 11:58:05;;;;;;;4.75;1.63;;;6.70;91.40;;;;;;5032291;28;20029;-77
2020/12/31 12:00:31;;;;;;;4.20;1.83;;;6.70;91.40;;;;;;5031384;28;20024;-74
2020/12/31 12:02:56;;;;;;;3.42;1.50;;;6.80;91.40;;;;;;5033057;28;20340;-73
2020/12/31 12:05:22;;;;;;;4.32;1.48;;;6.80;91.30;;;;;;5031902;28;20061;-72
2020/12/31 12:07:48;;;;;;;4.10;1.65;;;6.90;91.30;;;;;;5032910;28;20102;-74
2020/12/31 12:10:13;;;;;;;4.30;1.67;;;6.90;91.20;;;;;;5031835;28;20060;-73
2020/12/31 12:12:39;;;;;;;4.82;2.15;;;6.90;91.20;;;;;;5033131;28;20446;-74
2020/12/31 12:15:06;;;;;;;4.70;1.90;;;6.90;91.10;;;;;;5031593;28;20060;-74
2020/12/31 12:17:32;;;;;;;3.25;1.60;;;6.90;91.00;;;;;;5032590;28;20120;-72
2020/12/31 12:19:58;;;;;;;2.53;1.45;;;7.00;91.00;;;;;;5032857;28;20092;-72
2020/12/31 12:22:24;;;;;;;4.05;1.70;;;6.90;90.90;;;;;;5031846;28;20076;-74
2020/12/31 12:24:50;;;;;;;5.68;1.90;;;6.90;90.90;;;;;;5032693;28;20026;-74
2020/12/31 12:27:16;;;;;;;2.80;1.60;;;6.90;91.00;;;;;;5031866;28;20026;-72
2020/12/31 12:29:41;;;;;;;3.40;1.88;;;6.90;91.00;;;;;;5032666;28;20473;-73
2020/12/31 12:32:11;;;;;;;6.82;1.90;;;6.80;91.10;;;;;;5031557;28;20116;-74
2020/12/31 12:34:37;;;;;;;4.10;1.70;;;6.80;91.20;;;;;;5031368;28;20484;-72
2020/12/31 12:37:03;;;;;;;5.47;2.10;;;6.80;91.20;;;;;;5033688;28;20021;-74
2020/12/31 12:39:29;;;;;;;6.53;2.28;;;6.70;91.20;;;;;;5034058;28;20029;-75
2020/12/31 12:41:58;;;;;;;6.72;1.90;;;6.70;91.30;;;;;;5033402;28;20387;-74
2020/12/31 12:44:24;;;;;;;4.28;1.90;;;6.70;91.40;;;;;;5016404;28;20028;-74
2020/12/31 12:46:50;;;;;;;5.18;1.90;;;6.70;91.40;;;;;;5016809;28;20343;-75
2020/12/31 12:49:16;;;;;;;3.10;1.55;;;6.70;91.40;;;;;;5034382;28;20025;-75
2020/12/31 12:51:42;;;;;;;2.63;1.52;;;6.70;91.40;;;;;;5016828;28;20024;-75
2020/12/31 12:54:08;;;;;;;5.00;1.52;;;6.70;91.40;;;;;;5016489;28;20022;-75
2020/12/31 12:56:33;;;;;;;3.85;1.60;;;6.70;91.30;;;;;;5034015;28;20025;-75
2020/12/31 12:58:59;;;;;;;2.75;1.52;;;6.70;91.30;;;;;;5034537;28;20443;-75
2020/12/31 13:01:25;;;;;;;3.80;1.92;;;6.70;91.30;;;;;;5034077;28;20059;-75
2020/12/31 13:03:51;;;;;;;5.80;2.33;;;6.60;91.30;;;;;;5033991;28;20440;-74